Gatewood, MO (63942)

4:28 PM CST on February 10, 2016 (GMT -0600)
Current River Doniphan | | Change Station
CLOSE
Current Station
Personal Weather Station
Location: Doniphan, MO
Elevation: 305 ft
Nearby Weather Stations
Active Advisory: Special Statement

Elev 305 ft 36.55 °N, 90.83 °W | Updated 20 seconds ago

Clear
Clear
40.1 °F
Feels Like 40 °F
N
2.7
Wind Variable Wind from ESE
Gusts 4.9 mph

Today
High -- | Low -- °F
--% Chance of Precip.
Yesterday
High -- | Low -- °F
Precip. -- in
Pressure 30.13 in
Visibility 10.0 miles
Clouds Clear
Windchill 40 °F
Dew Point 15 °F
Humidity 35%
Rainfall 0.00 in
Snow Depth Not available.
6:58 AM 5:39 PM
Waxing Crescent, 7% visible
METAR K4M9 102215Z AUTO 14005KT 10SM CLR 02/M12 A3013 RMK AO2
Pressure 30.13 in
Visibility 10.0 miles
Clouds Clear
Windchill 40 °F
Dew Point 15 °F
Humidity 35%
Rainfall 0.00 in
Snow Depth Not available.
6:58 AM 5:39 PM
Waxing Crescent, 7% visible
METAR K4M9 102215Z AUTO 14005KT 10SM CLR 02/M12 A3013 RMK AO2

10-Day Weather Forecast

Almanac

Astronomy

Feb. 10, 2016 Rise Set
Actual Time
Civil Twilight
Nautical Twilight
Astronomical Twilight
Moon
Length of Visible Light
Length of Day
Tomorrow will be .
, % of the Moon is Illuminated

Today's Extremes

State Highs State Lows

Community

WunderPhotos

Upload Photos

1,891,952 photos uploaded!

WunderBlog® & News

Nearby

Air Quality

  Air Quality AQ Index Pollutant
Not available.

Snow Depth

Station Depth Elevation

Earthquake Activity

City Distance Mag. Time & Date
Minimum magnitude displayed is 2.5.

Coastal Water Temperatures

Place Temperature

Stations

Nearby Weather Stations

Station Location Temp. Windchill Dew Point Humidity Wind Precip. Elev Updated Type
                   

Watches & Warnings

Special Statement
Issued: 12:54 PM CST Feb. 10, 2016 – National Weather Service

... Light wintry precipitation expected this afternoon...

Light snow showers will be impacting communities this afternoon as
we head toward school and work departure times. With temperatures
remaining below freezing... even very minimal amounts of
precipitation could impact pavetops... mainly untreated walk or
Road surfaces. Light sleet or melted snow could mix with the light
snow at times. Whiting of the ground is possible... but mainly on
grassy surfaces.



1254 PM CST Wed Feb 10 2016

... Light wintry precipitation expected this afternoon...

Light snow showers will be impacting communities this afternoon as
we head toward school and work departure times. With temperatures
remaining below freezing... even very minimal amounts of
precipitation could impact pavetops... mainly untreated walk or
Road surfaces. Light sleet or melted snow could mix with the light
snow at times. Whiting of the ground is possible... but mainly on
grassy surfaces.